• Join FlightAware (Why Join?)
  • Login
  • US Flag 
02:36PM EST


 

Airport Tracker/Info


-or-


 

Live Flight TrackerFlight Track Log ✈ OPT429 ✈ 18-Jun-2014 ✈ KHOU - KAUS

Flight Track Log - Related Links

Times and Time Zones

All times are in EDT time to prevent confusion due to time zone crossing. See the OPT429 flight status page for this flight to view local times or setup timezone preferences in your user account.

Time Position Orientation Groundspeed Altitude Reporting Facility
EDT Latitude Longitude Course Direction KTS MPH feet Rate Location/Type
04:28PM 29.6375 -95.2889 231° Southwest 152 175 1,000  Level Houston Center
04:28PM 29.6319 -95.2967 231° Southwest 163 188 1,400 2,580 Climbing Houston Center
04:29PM 29.6100 -95.3547 247° West 229 264 4,200 2,640 Climbing Houston Center
04:30PM 29.6172 -95.4003 280° West 229 264 6,000 2,820 Climbing Houston Center
04:30PM 29.6211 -95.4303 278° West 241 277 7,100 2,640 Climbing Houston Center
04:31PM 29.6275 -95.4806 278° West 251 289 8,800 2,700 Climbing Houston Center
04:31PM 29.6308 -95.5133 277° West 268 308 9,900 2,580 Climbing Houston Center
04:32PM 29.6403 -95.5664 282° West 269 310 11,500 2,700 Climbing Houston Center
04:32PM 29.6553 -95.5992 298° West 288 331 12,700 2,400 Climbing Houston Center
04:33PM 29.6800 -95.6492 300° West 285 328 14,000 1,260 Climbing Houston Center
04:33PM 29.6944 -95.6836 296° West 312 359 14,000  Level Houston Center
04:34PM 29.7228 -95.7419 299° West 322 371 14,000  Level Houston Center
04:34PM 29.7406 -95.7792 299° West 348 400 14,000  Level Houston Center
04:35PM 29.7775 -95.8608 298° West 347 399 14,000  Level Houston Center
04:36PM 29.8269 -95.9600 300° West 355 409 14,000  Level Houston Center
04:37PM 29.8539 -96.0614 287° West 351 404 14,000  Level Houston Center
04:38PM 29.8803 -96.1708 286° West 353 406 14,000  Level Houston Center
04:39PM 29.9122 -96.3003 286° West 353 406 14,000  Level Houston Center
04:40PM 29.9386 -96.4092 286° West 353 406 14,000  Level Houston Center
04:41PM 29.9658 -96.5186 286° West 354 407 14,000  Level Houston Center
04:42PM 29.9919 -96.6292 285° West 355 409 14,000  Level Houston Center
04:43PM 30.0181 -96.7381 286° West 355 409 14,000 -960 Level Houston Center
04:44PM 30.0492 -96.8694 285° West 355 409 12,000 -1,860 Descending Houston Center
04:45PM 30.0797 -96.9683 290° West 336 387 10,200 -1,800 Descending Houston Center
04:46PM 30.1061 -97.0586 289° West 296 341 8,300 -1,860 Descending Houston Center
04:47PM 30.1328 -97.1450 290° West 289 333 6,400 -1,080 Descending Houston Center
04:48PM 30.1711 -97.2197 301° West 277 319 6,100 -660 Descending Houston Center
04:49PM 30.2139 -97.2936 304° West 273 314 5,100 -1,260 Descending Houston Center
04:50PM 30.2639 -97.3853 302° West 275 316 3,600 -1,020 Descending Houston Center
04:51PM 30.3036 -97.4586 302° West 273 314 3,000 -300 Descending Houston Center
04:53PM 30.3294 -97.5244 294° West 244 281 3,000 -300 Level Houston Center
04:54PM 30.3306 -97.5961 271° West 228 262 2,500 -480 Descending Houston Center
04:55PM 30.3244 -97.6536 263° West 215 247 2,000 -360 Descending Houston Center
04:56PM 30.2881 -97.6625 192° South 164 189 1,800 -420 Descending Houston Center
04:57PM 30.2467 -97.6597 177° South 137 158 1,200 -480 Descending Houston Center
04:58PM 30.2142 -97.6581 177° South 123 142 900 -300 Descending Houston Center